sensor_id;sensor_type;location;lat;lon;timestamp;pressure;altitude;pressure_sealevel;temperature;humidity
54512;BME280;40419;47.438;19.026;2023-07-29T00:00:51;99387.88;;;20.06;100.00
54512;BME280;40419;47.438;19.026;2023-07-29T00:03:21;99382.13;;;19.97;100.00
54512;BME280;40419;47.438;19.026;2023-07-29T00:05:51;99388.72;;;19.91;100.00
54512;BME280;40419;47.438;19.026;2023-07-29T00:08:19;99378.28;;;19.72;100.00
54512;BME280;40419;47.438;19.026;2023-07-29T00:10:50;99375.53;;;19.57;100.00
54512;BME280;40419;47.438;19.026;2023-07-29T00:13:17;99367.28;;;19.72;100.00
54512;BME280;40419;47.438;19.026;2023-07-29T00:15:45;99372.81;;;19.77;100.00
54512;BME280;40419;47.438;19.026;2023-07-29T00:18:18;99374.44;;;19.99;99.47
54512;BME280;40419;47.438;19.026;2023-07-29T00:20:46;99367.84;;;20.00;98.62
54512;BME280;40419;47.438;19.026;2023-07-29T00:23:17;99370.03;;;20.03;96.15
54512;BME280;40419;47.438;19.026;2023-07-29T00:25:44;99372.78;;;20.03;97.06
54512;BME280;40419;47.438;19.026;2023-07-29T00:28:12;99367.84;;;20.05;96.00
54512;BME280;40419;47.438;19.026;2023-07-29T00:30:40;99370.03;;;20.08;94.92
54512;BME280;40419;47.438;19.026;2023-07-29T00:33:08;99367.03;;;19.99;94.62
54512;BME280;40419;47.438;19.026;2023-07-29T00:35:37;99370.59;;;19.90;96.33
54512;BME280;40419;47.438;19.026;2023-07-29T00:38:07;99365.66;;;19.87;97.21
54512;BME280;40419;47.438;19.026;2023-07-29T00:40:38;99372.78;;;19.93;95.36
54512;BME280;40419;47.438;19.026;2023-07-29T00:43:08;99371.97;;;19.97;93.60
54512;BME280;40419;47.438;19.026;2023-07-29T00:45:37;99368.69;;;20.00;93.34
54512;BME280;40419;47.438;19.026;2023-07-29T00:48:04;99359.63;;;19.95;92.56
54512;BME280;40419;47.438;19.026;2023-07-29T00:50:31;99368.13;;;19.93;93.06
54512;BME280;40419;47.438;19.026;2023-07-29T00:52:59;99353.03;;;19.96;93.25
54512;BME280;40419;47.438;19.026;2023-07-29T00:55:30;99360.97;;;20.03;93.23
54512;BME280;40419;47.438;19.026;2023-07-29T00:57:58;99356.56;;;19.91;94.65
54512;BME280;40419;47.438;19.026;2023-07-29T01:00:28;99361.81;;;19.77;97.33
54512;BME280;40419;47.438;19.026;2023-07-29T01:02:56;99350.53;;;19.69;98.70
54512;BME280;40419;47.438;19.026;2023-07-29T01:05:30;99362.34;;;19.64;100.00
54512;BME280;40419;47.438;19.026;2023-07-29T01:14:01;99359.31;;;19.40;100.00
54512;BME280;40419;47.438;19.026;2023-07-29T01:16:40;99352.19;;;19.44;100.00
54512;BME280;40419;47.438;19.026;2023-07-29T01:19:20;99357.69;;;19.44;100.00
54512;BME280;40419;47.438;19.026;2023-07-29T01:21:55;99354.38;;;19.57;100.00
54512;BME280;40419;47.438;19.026;2023-07-29T01:24:24;99343.41;;;19.57;100.00
54512;BME280;40419;47.438;19.026;2023-07-29T01:26:52;99351.34;;;19.64;100.00
54512;BME280;40419;47.438;19.026;2023-07-29T01:29:20;99349.44;;;19.54;100.00
54512;BME280;40419;47.438;19.026;2023-07-29T01:31:47;99350.28;;;19.50;100.00
54512;BME280;40419;47.438;19.026;2023-07-29T01:34:27;99348.63;;;19.43;100.00
54512;BME280;40419;47.438;19.026;2023-07-29T01:36:59;99350.25;;;19.55;100.00
54512;BME280;40419;47.438;19.026;2023-07-29T01:39:32;99358.22;;;19.51;99.06
54512;BME280;40419;47.438;19.026;2023-07-29T01:42:00;99346.97;;;19.53;97.23
54512;BME280;40419;47.438;19.026;2023-07-29T01:44:29;99356.88;;;19.43;98.44
54512;BME280;40419;47.438;19.026;2023-07-29T01:46:56;99355.75;;;19.34;100.00
54512;BME280;40419;47.438;19.026;2023-07-29T01:49:24;99359.84;;;19.21;100.00
54512;BME280;40419;47.438;19.026;2023-07-29T01:51:52;99363.66;;;19.00;100.00
54512;BME280;40419;47.438;19.026;2023-07-29T01:54:20;99369.16;;;19.00;100.00
54512;BME280;40419;47.438;19.026;2023-07-29T01:56:50;99363.34;;;18.96;100.00
54512;BME280;40419;47.438;19.026;2023-07-29T01:59:18;99363.09;;;18.92;100.00
54512;BME280;40419;47.438;19.026;2023-07-29T02:01:48;99359.81;;;19.01;100.00
54512;BME280;40419;47.438;19.026;2023-07-29T02:04:19;99351.59;;;19.06;100.00
54512;BME280;40419;47.438;19.026;2023-07-29T02:06:47;99360.66;;;19.01;100.00
54512;BME280;40419;47.438;19.026;2023-07-29T02:09:14;99368.03;;;18.95;100.00
54512;BME280;40419;47.438;19.026;2023-07-29T02:11:43;99350.47;;;18.91;100.00
54512;BME280;40419;47.438;19.026;2023-07-29T02:14:11;99357.63;;;19.03;100.00
54512;BME280;40419;47.438;19.026;2023-07-29T02:16:36;99350.25;;;19.24;100.00
54512;BME280;40419;47.438;19.026;2023-07-29T02:19:05;99356.84;;;19.28;100.00
54512;BME280;40419;47.438;19.026;2023-07-29T02:21:33;99350.28;;;19.34;100.00
54512;BME280;40419;47.438;19.026;2023-07-29T02:24:06;99353.28;;;19.33;100.00
54512;BME280;40419;47.438;19.026;2023-07-29T02:26:31;99355.75;;;19.39;100.00
54512;BME280;40419;47.438;19.026;2023-07-29T02:29:04;99364.81;;;19.45;100.00
54512;BME280;40419;47.438;19.026;2023-07-29T02:31:32;99351.38;;;19.54;100.00
54512;BME280;40419;47.438;19.026;2023-07-29T02:34:00;99361.78;;;19.67;100.00
54512;BME280;40419;47.438;19.026;2023-07-29T02:36:30;99360.44;;;19.39;100.00
54512;BME280;40419;47.438;19.026;2023-07-29T02:38:56;99359.59;;;19.28;100.00
54512;BME280;40419;47.438;19.026;2023-07-29T02:41:24;99352.16;;;19.13;100.00
54512;BME280;40419;47.438;19.026;2023-07-29T02:43:52;99356.53;;;19.14;100.00
54512;BME280;40419;47.438;19.026;2023-07-29T02:46:18;99352.44;;;19.17;100.00
54512;BME280;40419;47.438;19.026;2023-07-29T02:48:46;99357.09;;;19.21;100.00
54512;BME280;40419;47.438;19.026;2023-07-29T02:51:11;99362.31;;;19.23;100.00
54512;BME280;40419;47.438;19.026;2023-07-29T02:53:42;99362.34;;;19.38;100.00
54512;BME280;40419;47.438;19.026;2023-07-29T02:56:10;99362.63;;;19.26;100.00
54512;BME280;40419;47.438;19.026;2023-07-29T02:58:38;99364.50;;;19.10;100.00
54512;BME280;40419;47.438;19.026;2023-07-29T03:01:09;99362.84;;;19.04;100.00
54512;BME280;40419;47.438;19.026;2023-07-29T03:03:37;99365.03;;;19.12;100.00
54512;BME280;40419;47.438;19.026;2023-07-29T03:06:10;99365.34;;;19.21;100.00
54512;BME280;40419;47.438;19.026;2023-07-29T03:08:38;99369.44;;;19.19;100.00
54512;BME280;40419;47.438;19.026;2023-07-29T03:11:11;99366.16;;;19.22;100.00
54512;BME280;40419;47.438;19.026;2023-07-29T03:13:40;99373.28;;;19.12;100.00
54512;BME280;40419;47.438;19.026;2023-07-29T03:16:07;99375.19;;;19.17;100.00
54512;BME280;40419;47.438;19.026;2023-07-29T03:18:42;99375.75;;;19.14;100.00
54512;BME280;40419;47.438;19.026;2023-07-29T03:21:16;99364.78;;;19.19;100.00
54512;BME280;40419;47.438;19.026;2023-07-29T03:23:44;99360.97;;;19.25;100.00
54512;BME280;40419;47.438;19.026;2023-07-29T03:26:14;99368.66;;;19.34;100.00
54512;BME280;40419;47.438;19.026;2023-07-29T03:28:45;99360.13;;;19.20;100.00
54512;BME280;40419;47.438;19.026;2023-07-29T03:31:11;99362.88;;;19.30;100.00
54512;BME280;40419;47.438;19.026;2023-07-29T03:33:37;99363.72;;;19.41;100.00
54512;BME280;40419;47.438;19.026;2023-07-29T03:36:05;99355.78;;;19.60;100.00
54512;BME280;40419;47.438;19.026;2023-07-29T03:38:33;99366.75;;;19.80;100.00
54512;BME280;40419;47.438;19.026;2023-07-29T03:41:00;99367.00;;;20.10;97.95
54512;BME280;40419;47.438;19.026;2023-07-29T03:43:30;99364.28;;;19.63;100.00
54512;BME280;40419;47.438;19.026;2023-07-29T03:46:02;99359.84;;;19.21;100.00
54512;BME280;40419;47.438;19.026;2023-07-29T03:48:30;99371.22;;;18.72;100.00
54512;BME280;40419;47.438;19.026;2023-07-29T03:51:03;99375.22;;;18.49;100.00
54512;BME280;40419;47.438;19.026;2023-07-29T03:53:31;99379.09;;;18.53;100.00
54512;BME280;40419;47.438;19.026;2023-07-29T03:56:01;99382.84;;;18.36;100.00
54512;BME280;40419;47.438;19.026;2023-07-29T03:58:27;99391.69;;;18.49;100.00
54512;BME280;40419;47.438;19.026;2023-07-29T04:00:52;99387.06;;;18.54;100.00
54512;BME280;40419;47.438;19.026;2023-07-29T04:03:20;99385.13;;;18.55;100.00
54512;BME280;40419;47.438;19.026;2023-07-29T04:05:51;99382.50;;;18.81;100.00
54512;BME280;40419;47.438;19.026;2023-07-29T04:08:19;99378.19;;;19.00;100.00
54512;BME280;40419;47.438;19.026;2023-07-29T04:10:45;99384.31;;;19.43;100.00
54512;BME280;40419;47.438;19.026;2023-07-29T04:13:12;99379.94;;;19.73;100.00
54512;BME280;40419;47.438;19.026;2023-07-29T04:15:38;99374.41;;;20.09;100.00
54512;BME280;40419;47.438;19.026;2023-07-29T04:18:03;99382.56;;;20.45;100.00
54512;BME280;40419;47.438;19.026;2023-07-29T04:20:29;99377.88;;;20.51;100.00
54512;BME280;40419;47.438;19.026;2023-07-29T04:23:01;99381.44;;;20.67;100.00
54512;BME280;40419;47.438;19.026;2023-07-29T04:25:27;99384.84;;;21.03;98.51
54512;BME280;40419;47.438;19.026;2023-07-29T04:27:53;99391.25;;;21.33;92.40
54512;BME280;40419;47.438;19.026;2023-07-29T04:30:21;99378.66;;;21.67;91.77
54512;BME280;40419;47.438;19.026;2023-07-29T04:32:48;99380.03;;;21.93;89.01
54512;BME280;40419;47.438;19.026;2023-07-29T04:35:19;99382.50;;;21.95;92.25
54512;BME280;40419;47.438;19.026;2023-07-29T04:37:50;99381.94;;;21.24;97.01
54512;BME280;40419;47.438;19.026;2023-07-29T04:40:17;99384.28;;;21.01;97.04
54512;BME280;40419;47.438;19.026;2023-07-29T04:42:45;99378.25;;;20.24;100.00
54512;BME280;40419;47.438;19.026;2023-07-29T04:45:15;99380.41;;;20.37;100.00
54512;BME280;40419;47.438;19.026;2023-07-29T04:47:41;99378.69;;;20.67;100.00
54512;BME280;40419;47.438;19.026;2023-07-29T04:50:07;99382.44;;;20.86;100.00
54512;BME280;40419;47.438;19.026;2023-07-29T04:52:35;99391.22;;;20.88;100.00
54512;BME280;40419;47.438;19.026;2023-07-29T04:55:03;99386.09;;;21.21;99.48
54512;BME280;40419;47.438;19.026;2023-07-29T04:57:31;99386.19;;;21.51;96.90
54512;BME280;40419;47.438;19.026;2023-07-29T04:59:57;99390.59;;;21.47;96.52
54512;BME280;40419;47.438;19.026;2023-07-29T05:02:23;99380.25;;;21.68;95.78
54512;BME280;40419;47.438;19.026;2023-07-29T05:04:53;99381.06;;;22.03;92.41
54512;BME280;40419;47.438;19.026;2023-07-29T05:07:24;99384.94;;;22.02;91.82
54512;BME280;40419;47.438;19.026;2023-07-29T05:09:49;99384.69;;;21.98;91.11
54512;BME280;40419;47.438;19.026;2023-07-29T05:12:15;99393.47;;;22.29;88.87
54512;BME280;40419;47.438;19.026;2023-07-29T05:14:43;99400.16;;;22.23;90.00
54512;BME280;40419;47.438;19.026;2023-07-29T05:17:08;99406.56;;;21.84;91.87
54512;BME280;40419;47.438;19.026;2023-07-29T05:19:36;99403.44;;;21.96;91.82
54512;BME280;40419;47.438;19.026;2023-07-29T05:22:02;99403.00;;;22.13;92.87
54512;BME280;40419;47.438;19.026;2023-07-29T05:24:27;99403.97;;;21.98;94.30
54512;BME280;40419;47.438;19.026;2023-07-29T05:26:55;99398.56;;;22.17;94.72
54512;BME280;40419;47.438;19.026;2023-07-29T05:29:21;99395.19;;;22.25;97.35
54512;BME280;40419;47.438;19.026;2023-07-29T05:31:47;99407.53;;;22.28;98.48
54512;BME280;40419;47.438;19.026;2023-07-29T05:34:14;99414.41;;;22.30;98.02
54512;BME280;40419;47.438;19.026;2023-07-29T05:36:42;99413.00;;;22.38;98.98
54512;BME280;40419;47.438;19.026;2023-07-29T05:39:10;99412.19;;;22.38;97.11
54512;BME280;40419;47.438;19.026;2023-07-29T05:41:37;99419.97;;;22.55;99.14
54512;BME280;40419;47.438;19.026;2023-07-29T05:44:03;99426.16;;;22.46;95.58
54512;BME280;40419;47.438;19.026;2023-07-29T05:46:33;99433.59;;;22.46;96.23
54512;BME280;40419;47.438;19.026;2023-07-29T05:49:03;99431.25;;;22.58;95.23
54512;BME280;40419;47.438;19.026;2023-07-29T05:51:29;99425.91;;;22.43;94.72
54512;BME280;40419;47.438;19.026;2023-07-29T05:53:56;99433.72;;;22.60;93.28
54512;BME280;40419;47.438;19.026;2023-07-29T05:56:24;99429.03;;;22.60;95.73
54512;BME280;40419;47.438;19.026;2023-07-29T05:58:51;99433.31;;;22.72;93.67
54512;BME280;40419;47.438;19.026;2023-07-29T06:01:19;99439.78;;;22.62;96.15
54512;BME280;40419;47.438;19.026;2023-07-29T06:03:46;99446.63;;;22.64;96.61
54512;BME280;40419;47.438;19.026;2023-07-29T06:06:19;99448.75;;;22.73;95.73
54512;BME280;40419;47.438;19.026;2023-07-29T06:08:45;99453.16;;;22.74;95.44
54512;BME280;40419;47.438;19.026;2023-07-29T06:11:12;99448.94;;;22.81;92.94
54512;BME280;40419;47.438;19.026;2023-07-29T06:13:38;99454.03;;;22.93;91.05
54512;BME280;40419;47.438;19.026;2023-07-29T06:16:06;99462.34;;;22.88;89.63
54512;BME280;40419;47.438;19.026;2023-07-29T06:18:31;99461.19;;;22.94;86.96
54512;BME280;40419;47.438;19.026;2023-07-29T06:21:02;99465.91;;;22.70;88.96
54512;BME280;40419;47.438;19.026;2023-07-29T06:23:35;99454.59;;;22.42;89.07
54512;BME280;40419;47.438;19.026;2023-07-29T06:26:01;99464.06;;;22.60;89.93
54512;BME280;40419;47.438;19.026;2023-07-29T06:28:31;99465.53;;;22.76;88.88
54512;BME280;40419;47.438;19.026;2023-07-29T06:30:56;99465.81;;;22.99;86.26
54512;BME280;40419;47.438;19.026;2023-07-29T06:33:22;99465.59;;;23.20;85.67
54512;BME280;40419;47.438;19.026;2023-07-29T06:35:52;99460.53;;;23.46;85.27
54512;BME280;40419;47.438;19.026;2023-07-29T06:38:20;99463.00;;;23.66;86.16
54512;BME280;40419;47.438;19.026;2023-07-29T06:40:50;99468.16;;;23.92;82.32
54512;BME280;40419;47.438;19.026;2023-07-29T06:43:18;99468.53;;;24.18;82.42
54512;BME280;40419;47.438;19.026;2023-07-29T06:45:46;99469.78;;;24.26;79.36
54512;BME280;40419;47.438;19.026;2023-07-29T06:48:16;99467.06;;;24.40;78.84
54512;BME280;40419;47.438;19.026;2023-07-29T06:50:42;99462.03;;;24.42;78.38
54512;BME280;40419;47.438;19.026;2023-07-29T06:53:13;99462.44;;;24.35;79.62
54512;BME280;40419;47.438;19.026;2023-07-29T06:55:38;99467.75;;;24.46;76.81
54512;BME280;40419;47.438;19.026;2023-07-29T06:58:04;99464.38;;;24.35;77.59
54512;BME280;40419;47.438;19.026;2023-07-29T07:00:32;99462.63;;;24.72;78.69
54512;BME280;40419;47.438;19.026;2023-07-29T07:03:02;99468.88;;;24.77;76.67
54512;BME280;40419;47.438;19.026;2023-07-29T07:05:28;99462.09;;;24.70;75.54
54512;BME280;40419;47.438;19.026;2023-07-29T07:07:56;99461.50;;;24.87;76.44
54512;BME280;40419;47.438;19.026;2023-07-29T07:10:26;99459.94;;;24.94;72.96
54512;BME280;40419;47.438;19.026;2023-07-29T07:12:54;99457.69;;;24.83;73.14
54512;BME280;40419;47.438;19.026;2023-07-29T07:15:19;99462.09;;;24.84;71.98
54512;BME280;40419;47.438;19.026;2023-07-29T07:17:47;99453.19;;;24.87;73.99
54512;BME280;40419;47.438;19.026;2023-07-29T07:20:15;99459.09;;;24.94;74.79
54512;BME280;40419;47.438;19.026;2023-07-29T07:22:43;99457.44;;;25.21;75.36
54512;BME280;40419;47.438;19.026;2023-07-29T07:25:11;99460.63;;;25.28;73.69
54512;BME280;40419;47.438;19.026;2023-07-29T07:27:41;99460.13;;;25.40;71.83
54512;BME280;40419;47.438;19.026;2023-07-29T07:30:12;99458.25;;;25.72;71.35
54512;BME280;40419;47.438;19.026;2023-07-29T07:32:40;99463.13;;;26.11;69.79
54512;BME280;40419;47.438;19.026;2023-07-29T07:35:08;99460.75;;;26.18;68.55
54512;BME280;40419;47.438;19.026;2023-07-29T07:37:33;99454.22;;;25.78;68.43
54512;BME280;40419;47.438;19.026;2023-07-29T07:40:01;99461.22;;;25.75;69.05
54512;BME280;40419;47.438;19.026;2023-07-29T07:42:30;99453.13;;;25.65;72.51
54512;BME280;40419;47.438;19.026;2023-07-29T07:44:57;99457.06;;;25.64;71.84
54512;BME280;40419;47.438;19.026;2023-07-29T07:47:25;99455.00;;;25.70;71.36
54512;BME280;40419;47.438;19.026;2023-07-29T07:49:53;99458.44;;;25.75;71.29
54512;BME280;40419;47.438;19.026;2023-07-29T07:52:19;99449.88;;;25.86;71.84
54512;BME280;40419;47.438;19.026;2023-07-29T07:54:47;99451.16;;;25.79;71.17
54512;BME280;40419;47.438;19.026;2023-07-29T07:57:16;99443.47;;;25.76;68.57
54512;BME280;40419;47.438;19.026;2023-07-29T07:59:44;99448.81;;;25.95;70.52
54512;BME280;40419;47.438;19.026;2023-07-29T08:02:11;99439.66;;;25.95;70.02
54512;BME280;40419;47.438;19.026;2023-07-29T08:04:39;99448.09;;;26.04;69.31
54512;BME280;40419;47.438;19.026;2023-07-29T08:07:10;99448.88;;;26.27;68.76
54512;BME280;40419;47.438;19.026;2023-07-29T08:09:35;99446.50;;;26.43;67.76
54512;BME280;40419;47.438;19.026;2023-07-29T08:12:01;99440.00;;;26.47;65.86
54512;BME280;40419;47.438;19.026;2023-07-29T08:14:26;99439.69;;;26.17;67.69
54512;BME280;40419;47.438;19.026;2023-07-29T08:16:52;99435.88;;;26.36;67.06
54512;BME280;40419;47.438;19.026;2023-07-29T08:19:24;99444.28;;;26.22;66.57
54512;BME280;40419;47.438;19.026;2023-07-29T08:21:50;99440.78;;;26.39;65.51
54512;BME280;40419;47.438;19.026;2023-07-29T08:24:18;99434.44;;;26.47;64.75
54512;BME280;40419;47.438;19.026;2023-07-29T08:26:49;99435.47;;;26.51;65.36
54512;BME280;40419;47.438;19.026;2023-07-29T08:29:20;99430.22;;;26.50;65.85
54512;BME280;40419;47.438;19.026;2023-07-29T08:31:46;99435.78;;;26.81;59.80
54512;BME280;40419;47.438;19.026;2023-07-29T08:34:11;99431.03;;;26.82;60.48
54512;BME280;40419;47.438;19.026;2023-07-29T08:36:37;99427.13;;;26.83;60.07
54512;BME280;40419;47.438;19.026;2023-07-29T08:39:07;99427.16;;;27.09;59.51
54512;BME280;40419;47.438;19.026;2023-07-29T08:44:23;99423.91;;;27.24;61.84
54512;BME280;40419;47.438;19.026;2023-07-29T08:46:56;99437.53;;;27.35;59.91
54512;BME280;40419;47.438;19.026;2023-07-29T08:49:25;99427.22;;;27.35;54.67
54512;BME280;40419;47.438;19.026;2023-07-29T08:51:53;99427.97;;;27.10;58.42
54512;BME280;40419;47.438;19.026;2023-07-29T08:54:21;99435.88;;;27.34;56.85
54512;BME280;40419;47.438;19.026;2023-07-29T08:56:53;99431.31;;;27.38;58.97
54512;BME280;40419;47.438;19.026;2023-07-29T08:59:21;99427.19;;;27.18;53.90
54512;BME280;40419;47.438;19.026;2023-07-29T09:01:50;99423.13;;;27.50;53.72
54512;BME280;40419;47.438;19.026;2023-07-29T09:04:18;99421.69;;;27.62;53.88
54512;BME280;40419;47.438;19.026;2023-07-29T09:06:50;99415.94;;;27.67;52.50
54512;BME280;40419;47.438;19.026;2023-07-29T09:09:19;99422.00;;;27.60;53.32
54512;BME280;40419;47.438;19.026;2023-07-29T09:11:49;99419.72;;;27.62;52.05
54512;BME280;40419;47.438;19.026;2023-07-29T09:14:14;99421.16;;;27.59;50.78
54512;BME280;40419;47.438;19.026;2023-07-29T09:16:41;99420.03;;;27.69;51.81
54512;BME280;40419;47.438;19.026;2023-07-29T09:19:09;99411.03;;;27.81;53.52
54512;BME280;40419;47.438;19.026;2023-07-29T09:21:40;99412.34;;;27.57;52.61
54512;BME280;40419;47.438;19.026;2023-07-29T09:24:10;99419.38;;;27.81;51.61
54512;BME280;40419;47.438;19.026;2023-07-29T09:26:48;99410.19;;;27.89;52.19
54512;BME280;40419;47.438;19.026;2023-07-29T09:29:21;99411.19;;;27.85;51.58
54512;BME280;40419;47.438;19.026;2023-07-29T09:31:47;99409.69;;;28.05;51.07
54512;BME280;40419;47.438;19.026;2023-07-29T09:34:15;99398.41;;;28.10;51.58
54512;BME280;40419;47.438;19.026;2023-07-29T09:36:42;99406.78;;;28.40;49.57
54512;BME280;40419;47.438;19.026;2023-07-29T09:39:11;99400.25;;;28.44;48.65
54512;BME280;40419;47.438;19.026;2023-07-29T09:41:38;99395.63;;;27.92;50.77
54512;BME280;40419;47.438;19.026;2023-07-29T09:44:04;99393.16;;;27.91;50.83
54512;BME280;40419;47.438;19.026;2023-07-29T09:46:37;99398.56;;;28.05;50.24
54512;BME280;40419;47.438;19.026;2023-07-29T09:49:07;99390.97;;;28.23;50.63
54512;BME280;40419;47.438;19.026;2023-07-29T09:51:40;99393.22;;;28.38;47.93
54512;BME280;40419;47.438;19.026;2023-07-29T09:54:08;99394.50;;;28.41;49.29
54512;BME280;40419;47.438;19.026;2023-07-29T09:56:39;99389.38;;;28.52;48.84
54512;BME280;40419;47.438;19.026;2023-07-29T09:59:06;99393.91;;;28.74;46.99
54512;BME280;40419;47.438;19.026;2023-07-29T10:01:36;99375.47;;;28.60;46.56
54512;BME280;40419;47.438;19.026;2023-07-29T10:04:08;99395.97;;;28.86;46.83
54512;BME280;40419;47.438;19.026;2023-07-29T10:06:39;99389.56;;;28.55;46.38
54512;BME280;40419;47.438;19.026;2023-07-29T10:09:07;99379.84;;;28.70;46.18
54512;BME280;40419;47.438;19.026;2023-07-29T10:11:34;99382.75;;;28.74;46.09
54512;BME280;40419;47.438;19.026;2023-07-29T10:14:06;99393.94;;;28.56;45.45
54512;BME280;40419;47.438;19.026;2023-07-29T10:16:36;99386.47;;;28.48;44.88
54512;BME280;40419;47.438;19.026;2023-07-29T10:19:06;99391.72;;;28.88;45.01
54512;BME280;40419;47.438;19.026;2023-07-29T10:21:38;99391.50;;;28.93;46.57
54512;BME280;40419;47.438;19.026;2023-07-29T10:24:06;99387.69;;;28.98;45.74
54512;BME280;40419;47.438;19.026;2023-07-29T10:26:37;99378.59;;;29.10;45.94
54512;BME280;40419;47.438;19.026;2023-07-29T10:29:09;99383.34;;;29.09;45.66
54512;BME280;40419;47.438;19.026;2023-07-29T10:31:36;99385.56;;;28.74;45.41
54512;BME280;40419;47.438;19.026;2023-07-29T10:34:06;99379.56;;;28.63;46.40
54512;BME280;40419;47.438;19.026;2023-07-29T10:36:35;99381.22;;;28.85;45.92
54512;BME280;40419;47.438;19.026;2023-07-29T10:39:03;99384.34;;;28.84;46.07
54512;BME280;40419;47.438;19.026;2023-07-29T10:41:59;99370.06;;;28.55;47.24
54512;BME280;40419;47.438;19.026;2023-07-29T10:47:17;99375.41;;;28.69;46.66
54512;BME280;40419;47.438;19.026;2023-07-29T10:49:47;99376.47;;;28.86;46.98
54512;BME280;40419;47.438;19.026;2023-07-29T10:52:29;99372.72;;;28.81;47.89
54512;BME280;40419;47.438;19.026;2023-07-29T10:54:54;99372.38;;;28.83;47.22
54512;BME280;40419;47.438;19.026;2023-07-29T10:57:33;99372.63;;;28.69;48.13
54512;BME280;40419;47.438;19.026;2023-07-29T11:00:03;99369.72;;;28.66;48.76
54512;BME280;40419;47.438;19.026;2023-07-29T11:02:38;99382.72;;;28.44;47.80
54512;BME280;40419;47.438;19.026;2023-07-29T11:05:15;99375.97;;;28.54;47.63
54512;BME280;40419;47.438;19.026;2023-07-29T11:07:48;99378.09;;;28.09;48.81
54512;BME280;40419;47.438;19.026;2023-07-29T11:10:14;99372.84;;;28.17;50.54
54512;BME280;40419;47.438;19.026;2023-07-29T11:12:52;99377.94;;;28.15;51.74
54512;BME280;40419;47.438;19.026;2023-07-29T11:17:59;99375.44;;;28.22;48.68
54512;BME280;40419;47.438;19.026;2023-07-29T11:20:32;99377.28;;;27.91;51.34
54512;BME280;40419;47.438;19.026;2023-07-29T11:23:02;99380.63;;;27.58;51.77
54512;BME280;40419;47.438;19.026;2023-07-29T11:25:31;99382.09;;;27.73;52.39
54512;BME280;40419;47.438;19.026;2023-07-29T11:28:01;99378.81;;;27.98;51.15
54512;BME280;40419;47.438;19.026;2023-07-29T11:30:28;99374.38;;;28.44;51.28
54512;BME280;40419;47.438;19.026;2023-07-29T11:33:01;99366.09;;;28.56;49.46
54512;BME280;40419;47.438;19.026;2023-07-29T11:35:26;99364.06;;;28.44;49.02
54512;BME280;40419;47.438;19.026;2023-07-29T11:37:54;99368.53;;;28.67;47.41
54512;BME280;40419;47.438;19.026;2023-07-29T11:40:22;99371.69;;;28.56;48.60
54512;BME280;40419;47.438;19.026;2023-07-29T11:42:53;99369.56;;;28.53;49.33
54512;BME280;40419;47.438;19.026;2023-07-29T11:45:23;99360.06;;;28.16;50.47
54512;BME280;40419;47.438;19.026;2023-07-29T11:47:51;99360.25;;;27.93;50.53
54512;BME280;40419;47.438;19.026;2023-07-29T11:50:21;99347.06;;;27.81;49.45
54512;BME280;40419;47.438;19.026;2023-07-29T11:52:47;99345.59;;;27.75;50.52
54512;BME280;40419;47.438;19.026;2023-07-29T11:55:16;99352.50;;;27.60;47.81
54512;BME280;40419;47.438;19.026;2023-07-29T11:57:51;99352.66;;;27.46;51.33
54512;BME280;40419;47.438;19.026;2023-07-29T12:00:17;99353.81;;;27.36;52.67
54512;BME280;40419;47.438;19.026;2023-07-29T12:02:46;99356.75;;;27.40;53.17
54512;BME280;40419;47.438;19.026;2023-07-29T12:05:16;99346.94;;;27.34;54.07
54512;BME280;40419;47.438;19.026;2023-07-29T12:07:43;99345.63;;;27.22;55.51
54512;BME280;40419;47.438;19.026;2023-07-29T12:10:12;99340.53;;;27.16;54.58
54512;BME280;40419;47.438;19.026;2023-07-29T12:12:48;99336.47;;;27.13;55.27
54512;BME280;40419;47.438;19.026;2023-07-29T12:15:26;99344.16;;;27.51;55.51
54512;BME280;40419;47.438;19.026;2023-07-29T12:17:56;99332.41;;;28.19;51.99
54512;BME280;40419;47.438;19.026;2023-07-29T12:20:22;99337.34;;;28.05;53.21
54512;BME280;40419;47.438;19.026;2023-07-29T12:22:58;99328.72;;;27.89;52.07
54512;BME280;40419;47.438;19.026;2023-07-29T12:25:29;99331.16;;;27.90;51.80
54512;BME280;40419;47.438;19.026;2023-07-29T12:27:57;99328.41;;;27.82;52.03
54512;BME280;40419;47.438;19.026;2023-07-29T12:30:31;99335.59;;;27.83;52.11
54512;BME280;40419;47.438;19.026;2023-07-29T12:32:59;99328.75;;;27.71;52.27
54512;BME280;40419;47.438;19.026;2023-07-29T12:35:34;99321.94;;;27.43;53.69
54512;BME280;40419;47.438;19.026;2023-07-29T12:38:02;99334.19;;;27.50;52.50
54512;BME280;40419;47.438;19.026;2023-07-29T12:40:28;99330.75;;;27.45;52.88
54512;BME280;40419;47.438;19.026;2023-07-29T12:42:58;99329.47;;;27.51;52.50
54512;BME280;40419;47.438;19.026;2023-07-29T12:45:23;99323.91;;;27.51;52.07
54512;BME280;40419;47.438;19.026;2023-07-29T12:47:52;99318.72;;;27.88;49.76
54512;BME280;40419;47.438;19.026;2023-07-29T12:50:20;99323.16;;;27.89;50.63
54512;BME280;40419;47.438;19.026;2023-07-29T12:52:46;99315.66;;;27.72;51.49
54512;BME280;40419;47.438;19.026;2023-07-29T12:55:16;99315.63;;;27.81;50.00
54512;BME280;40419;47.438;19.026;2023-07-29T12:57:42;99321.88;;;27.77;49.86
54512;BME280;40419;47.438;19.026;2023-07-29T13:00:11;99312.88;;;27.72;50.76
54512;BME280;40419;47.438;19.026;2023-07-29T13:02:37;99315.56;;;27.51;52.36
54512;BME280;40419;47.438;19.026;2023-07-29T13:05:05;99313.03;;;27.75;51.10
54512;BME280;40419;47.438;19.026;2023-07-29T13:07:33;99309.06;;;27.85;51.72
54512;BME280;40419;47.438;19.026;2023-07-29T13:10:01;99312.56;;;27.73;50.03